Milam, West Virginia
Current Conditions -  °F | °C
As of 2:55 AM on Friday 21 Nov 2014 (Local Time) from KW99 Reporting Station
Overcast Overcast  
Wind Chill: 19°   Ceiling: 5000
Heat Index: 29°   Visibility: 10mi
Dew Point:   Wind: 13mph
Humidity: 41%   Direction: 280°W
Pressure: 30.22"   Gusts: 22mph
Location:  38.81°N, 79.08°W
Report Text: KW99 210755Z AUTO 28011G19KT 10SM OVC050 M01/M13 A3022 RMK AO2 T10151134
Loading
Personal Weather Stations






























Interactive Weather Map New forecast layout! Learn more

10-Day Weather Forecast

Advertisements
Track Severe Weather on mobile